Time;durP1;ratioP1;P1;durP2;ratioP2;P2;SDS_P1;SDS_P2;PMS_P1;PMS_P2;Temp;Humidity;BMP_temperature;BMP_pressure;BME280_temperature;BME280_humidity;BME280_pressure;Samples;Min_cycle;Max_cycle;Signal;HPM_P1;HPM_P2
2021/07/22 00:00:53;;;;;;;10.85;8.48;;;18.80;69.50;;;;;;4964514;28;20125;-65
2021/07/22 00:03:18;;;;;;;15.52;8.68;;;18.80;69.70;;;;;;4966186;28;20035;-65
2021/07/22 00:05:44;;;;;;;12.35;8.07;;;18.80;69.70;;;;;;4963780;28;20570;-65
2021/07/22 00:08:11;;;;;;;12.73;8.82;;;18.80;69.90;;;;;;4963069;28;20031;-64
2021/07/22 00:10:40;;;;;;;13.30;8.90;;;18.80;69.80;;;;;;4963860;28;20037;-64
2021/07/22 00:13:07;;;;;;;15.73;9.10;;;18.80;70.10;;;;;;4963164;28;20039;-64
2021/07/22 00:15:33;;;;;;;13.27;9.40;;;18.80;69.90;;;;;;4965960;28;20062;-64
2021/07/22 00:17:59;;;;;;;11.73;9.40;;;18.80;69.90;;;;;;4966169;28;20039;-65
2021/07/22 00:20:25;;;;;;;12.65;9.27;;;18.80;69.70;;;;;;4962444;28;20093;-65
2021/07/22 00:22:51;;;;;;;13.38;9.68;;;18.80;69.90;;;;;;4961159;28;20027;-64
2021/07/22 00:25:16;;;;;;;13.07;9.77;;;18.80;69.90;;;;;;4965020;28;20066;-65
2021/07/22 00:27:42;;;;;;;13.38;9.93;;;18.70;69.90;;;;;;4966118;28;20081;-64
2021/07/22 00:30:08;;;;;;;12.38;9.57;;;18.70;69.90;;;;;;4964963;28;20043;-64
2021/07/22 00:32:35;;;;;;;13.00;9.57;;;18.70;69.90;;;;;;4965141;28;20055;-64
2021/07/22 00:35:01;;;;;;;13.77;9.85;;;18.70;70.00;;;;;;4967023;28;20046;-65
2021/07/22 00:37:26;;;;;;;13.43;9.55;;;18.70;70.20;;;;;;4971416;28;20030;-64
2021/07/22 00:39:52;;;;;;;15.02;10.32;;;18.60;70.10;;;;;;4968217;28;20039;-64
2021/07/22 00:42:18;;;;;;;13.35;9.98;;;18.60;70.20;;;;;;4967858;28;20034;-64
2021/07/22 00:44:43;;;;;;;12.52;10.15;;;18.60;70.10;;;;;;4968696;28;20050;-64
2021/07/22 00:47:09;;;;;;;11.82;9.82;;;18.60;70.00;;;;;;4971192;28;20027;-65
2021/07/22 00:49:34;;;;;;;14.02;9.13;;;18.50;70.20;;;;;;4967463;28;20078;-64
2021/07/22 00:52:00;;;;;;;13.88;10.35;;;18.50;70.10;;;;;;4965614;28;20031;-64
2021/07/22 00:54:26;;;;;;;12.52;9.93;;;18.50;70.20;;;;;;4967633;28;20034;-64
2021/07/22 00:56:51;;;;;;;12.63;9.25;;;18.40;70.60;;;;;;4971198;28;20027;-65
2021/07/22 00:59:17;;;;;;;12.13;9.55;;;18.50;70.60;;;;;;4967222;28;20078;-65
2021/07/22 01:01:43;;;;;;;12.23;9.52;;;18.40;70.50;;;;;;4965279;28;21221;-65
2021/07/22 01:04:08;;;;;;;11.98;9.45;;;18.40;70.50;;;;;;4969554;28;20035;-65
2021/07/22 01:06:34;;;;;;;14.30;9.10;;;18.40;70.60;;;;;;4971046;28;20153;-64
2021/07/22 01:08:59;;;;;;;14.18;8.80;;;18.30;70.70;;;;;;4969060;28;20042;-65
2021/07/22 01:11:25;;;;;;;11.90;8.30;;;18.30;70.70;;;;;;4966978;28;20517;-65
2021/07/22 01:13:51;;;;;;;9.85;7.88;;;18.30;70.60;;;;;;4966770;28;20100;-65
2021/07/22 01:16:16;;;;;;;12.55;9.13;;;18.30;70.70;;;;;;4968000;28;20038;-65
2021/07/22 01:18:42;;;;;;;10.05;8.57;;;18.30;70.70;;;;;;4968465;28;20397;-64
2021/07/22 01:21:09;;;;;;;14.45;8.75;;;18.30;70.70;;;;;;4965212;28;20031;-65
2021/07/22 01:23:35;;;;;;;14.48;8.50;;;18.20;70.80;;;;;;4969113;28;20054;-64
2021/07/22 01:26:01;;;;;;;11.70;8.90;;;18.20;70.80;;;;;;4966069;28;20505;-65
2021/07/22 01:28:26;;;;;;;9.52;7.80;;;18.10;70.90;;;;;;4966752;28;20042;-65
2021/07/22 01:30:52;;;;;;;12.10;9.15;;;18.10;70.90;;;;;;4969556;28;20126;-65
2021/07/22 01:33:17;;;;;;;13.20;8.60;;;18.10;71.00;;;;;;4968338;28;20070;-65
2021/07/22 01:35:43;;;;;;;14.43;9.20;;;18.00;71.10;;;;;;4969623;28;20541;-65
2021/07/22 01:38:09;;;;;;;11.75;8.63;;;18.00;71.30;;;;;;4970103;28;20460;-65
2021/07/22 01:40:35;;;;;;;12.68;8.90;;;18.00;71.30;;;;;;4968000;28;20573;-64
2021/07/22 01:43:05;;;;;;;12.45;8.98;;;17.90;71.40;;;;;;4968740;28;20141;-65
2021/07/22 01:45:31;;;;;;;12.25;8.88;;;17.90;71.80;;;;;;4969963;28;20047;-65
2021/07/22 01:47:57;;;;;;;12.40;9.48;;;17.80;71.80;;;;;;4972451;28;20039;-65
2021/07/22 01:50:22;;;;;;;13.40;9.48;;;17.80;72.00;;;;;;4967811;28;20053;-65
2021/07/22 01:52:48;;;;;;;11.57;9.10;;;17.80;71.80;;;;;;4966716;28;20043;-64
2021/07/22 01:55:13;;;;;;;12.07;9.88;;;17.70;71.80;;;;;;4966189;28;20501;-65
2021/07/22 01:57:39;;;;;;;11.57;9.35;;;17.70;71.70;;;;;;4967950;28;20038;-65
2021/07/22 02:00:05;;;;;;;15.68;10.18;;;17.70;71.80;;;;;;4968547;28;20117;-65
2021/07/22 02:02:32;;;;;;;14.07;9.90;;;17.70;71.90;;;;;;4958804;28;20038;-65
2021/07/22 02:04:58;;;;;;;11.32;9.60;;;17.70;71.80;;;;;;4968214;28;20131;-65
2021/07/22 02:07:24;;;;;;;11.48;9.18;;;17.70;72.00;;;;;;4969491;28;20031;-65
2021/07/22 02:09:49;;;;;;;13.70;9.65;;;17.70;72.00;;;;;;4966659;28;20081;-64
2021/07/22 02:12:15;;;;;;;12.27;9.30;;;17.70;72.00;;;;;;4966470;28;20063;-65
2021/07/22 02:14:42;;;;;;;11.70;8.45;;;17.60;71.90;;;;;;4966385;28;20058;-64
2021/07/22 02:17:08;;;;;;;9.52;7.88;;;17.60;72.00;;;;;;4969511;28;20043;-64
2021/07/22 02:19:34;;;;;;;13.10;9.07;;;17.50;72.00;;;;;;4969589;28;20033;-65
2021/07/22 02:21:59;;;;;;;13.25;9.15;;;17.50;72.10;;;;;;4970002;28;20035;-65
2021/07/22 02:24:25;;;;;;;14.05;9.55;;;17.50;72.10;;;;;;4964969;28;20462;-65
2021/07/22 02:26:50;;;;;;;12.75;8.77;;;17.50;72.00;;;;;;4968924;28;20066;-64
2021/07/22 02:29:16;;;;;;;12.93;8.80;;;17.50;72.10;;;;;;4967357;28;20413;-65
2021/07/22 02:31:41;;;;;;;14.25;9.50;;;17.40;72.30;;;;;;4968378;28;20059;-65
2021/07/22 02:34:07;;;;;;;14.88;9.02;;;17.30;72.50;;;;;;4966783;28;20119;-64
2021/07/22 02:36:33;;;;;;;12.68;9.15;;;17.30;72.60;;;;;;4969758;28;20043;-65
2021/07/22 02:39:00;;;;;;;16.48;9.18;;;17.20;72.90;;;;;;4967916;28;20062;-65
2021/07/22 02:41:25;;;;;;;14.55;9.38;;;17.20;74.00;;;;;;4966315;28;20027;-65
2021/07/22 02:43:51;;;;;;;12.93;9.02;;;17.10;73.10;;;;;;4966973;28;20090;-65
2021/07/22 02:46:17;;;;;;;11.00;9.20;;;17.10;73.30;;;;;;4968788;28;20030;-64
2021/07/22 02:48:42;;;;;;;10.77;9.07;;;17.10;73.50;;;;;;4968350;28;20666;-64
2021/07/22 02:51:08;;;;;;;12.57;9.18;;;17.00;73.70;;;;;;4969767;28;20034;-64
2021/07/22 02:53:37;;;;;;;11.00;8.90;;;17.00;73.70;;;;;;4963922;28;20122;-65
2021/07/22 02:56:04;;;;;;;13.45;9.40;;;17.00;74.20;;;;;;4963119;28;20792;-65
2021/07/22 02:58:29;;;;;;;13.63;9.15;;;17.00;74.70;;;;;;4966547;28;20067;-65
2021/07/22 03:00:56;;;;;;;14.40;9.68;;;16.90;73.90;;;;;;4968951;28;20093;-65
2021/07/22 03:03:22;;;;;;;11.75;8.70;;;16.90;74.00;;;;;;4965103;28;20027;-64
2021/07/22 03:05:48;;;;;;;12.82;9.07;;;16.90;74.00;;;;;;4966686;28;20069;-65
2021/07/22 03:08:14;;;;;;;12.40;8.63;;;16.90;74.00;;;;;;4961427;28;20506;-65
2021/07/22 03:10:41;;;;;;;12.13;9.00;;;17.00;74.20;;;;;;4966138;28;20498;-65
2021/07/22 03:13:07;;;;;;;10.40;8.55;;;16.90;74.20;;;;;;4964549;28;20530;-64
2021/07/22 03:15:33;;;;;;;11.45;8.95;;;16.90;74.20;;;;;;4966764;28;20091;-65
2021/07/22 03:17:59;;;;;;;12.05;8.75;;;16.90;74.20;;;;;;4965764;28;20039;-65
2021/07/22 03:20:25;;;;;;;11.95;8.82;;;16.90;74.20;;;;;;4965809;28;20089;-65
2021/07/22 03:22:50;;;;;;;11.20;8.18;;;16.90;74.20;;;;;;4967851;28;20090;-65
2021/07/22 03:25:16;;;;;;;12.70;8.73;;;16.90;74.10;;;;;;4963447;28;20066;-65
2021/07/22 03:27:42;;;;;;;13.02;8.98;;;16.90;74.00;;;;;;4969428;28;20038;-65
2021/07/22 03:30:08;;;;;;;12.27;8.27;;;16.80;74.00;;;;;;4965464;28;20076;-65
2021/07/22 03:32:37;;;;;;;13.95;8.43;;;16.80;73.90;;;;;;4963772;28;20031;-64
2021/07/22 03:35:04;;;;;;;12.00;7.97;;;16.80;74.40;;;;;;4965433;28;20051;-64
2021/07/22 03:37:31;;;;;;;11.30;8.48;;;16.80;74.00;;;;;;4960062;28;20116;-64
2021/07/22 03:39:56;;;;;;;12.65;8.57;;;16.70;74.10;;;;;;4968241;28;20038;-64
2021/07/22 03:42:25;;;;;;;11.82;9.05;;;16.70;74.20;;;;;;4967860;28;20379;-64
2021/07/22 03:44:52;;;;;;;15.40;8.85;;;16.70;74.30;;;;;;4963566;28;20514;-64
2021/07/22 03:47:18;;;;;;;13.05;8.70;;;16.70;74.30;;;;;;4963964;28;20027;-64
2021/07/22 03:49:43;;;;;;;11.65;8.18;;;16.70;74.30;;;;;;4963181;28;20515;-65
2021/07/22 03:52:09;;;;;;;12.30;8.45;;;16.60;74.30;;;;;;4963632;28;20121;-65
2021/07/22 03:54:34;;;;;;;16.35;8.43;;;16.60;74.40;;;;;;4962546;28;20046;-65
2021/07/22 03:57:01;;;;;;;14.48;8.93;;;16.60;74.50;;;;;;4962252;28;20771;-64
2021/07/22 03:59:27;;;;;;;14.65;8.25;;;16.50;74.60;;;;;;4965891;28;20113;-65
2021/07/22 04:01:53;;;;;;;14.10;8.32;;;16.50;74.60;;;;;;4968065;28;20147;-64
2021/07/22 04:04:19;;;;;;;9.88;7.88;;;16.50;74.60;;;;;;4964998;28;20035;-65
2021/07/22 04:06:45;;;;;;;9.77;7.63;;;16.50;74.40;;;;;;4965635;28;20038;-65
2021/07/22 04:09:10;;;;;;;11.68;8.00;;;16.50;74.60;;;;;;4965057;28;20579;-64
2021/07/22 04:11:37;;;;;;;12.18;8.73;;;16.50;74.70;;;;;;4965792;28;20101;-64
2021/07/22 04:14:03;;;;;;;14.07;8.75;;;16.50;74.70;;;;;;4962807;28;20077;-65
2021/07/22 04:16:29;;;;;;;13.40;8.60;;;16.50;74.70;;;;;;4965242;28;20038;-65
2021/07/22 04:18:54;;;;;;;12.45;9.25;;;16.50;74.70;;;;;;4961810;28;20043;-65
2021/07/22 04:21:20;;;;;;;15.18;9.73;;;16.50;74.70;;;;;;4966486;28;20034;-65
2021/07/22 04:23:47;;;;;;;14.02;9.45;;;16.60;74.80;;;;;;4964654;28;20382;-65
2021/07/22 04:26:16;;;;;;;13.38;9.18;;;16.60;74.90;;;;;;4968175;28;20062;-65
2021/07/22 04:28:42;;;;;;;14.95;9.93;;;16.60;76.10;;;;;;4963737;28;20031;-65
2021/07/22 04:31:08;;;;;;;15.65;9.88;;;16.60;75.10;;;;;;4963599;28;20394;-65
2021/07/22 04:33:34;;;;;;;16.10;9.68;;;16.60;75.10;;;;;;4964487;28;20038;-65
2021/07/22 04:35:59;;;;;;;14.35;9.48;;;16.60;75.30;;;;;;4960506;28;20039;-64
2021/07/22 04:38:25;;;;;;;18.67;9.65;;;16.60;75.30;;;;;;4952152;28;20073;-65
2021/07/22 04:40:51;;;;;;;17.40;9.98;;;16.60;75.30;;;;;;4965611;28;20069;-65
2021/07/22 04:43:17;;;;;;;14.32;9.70;;;16.60;75.40;;;;;;4960684;28;20461;-65
2021/07/22 04:45:42;;;;;;;14.45;9.65;;;16.60;75.30;;;;;;4962384;28;20560;-65
2021/07/22 04:48:08;;;;;;;12.50;9.18;;;16.60;75.40;;;;;;4968170;28;20505;-64
2021/07/22 04:50:33;;;;;;;13.35;9.00;;;16.60;75.60;;;;;;4969000;28;20121;-64
2021/07/22 04:53:00;;;;;;;15.13;9.60;;;16.60;75.70;;;;;;4965598;28;20038;-65
2021/07/22 04:55:26;;;;;;;13.65;9.52;;;16.60;76.60;;;;;;4965123;28;20118;-65
2021/07/22 04:58:01;;;;;;;14.00;9.55;;;16.60;75.90;;;;;;4968370;28;20465;-65
2021/07/22 05:00:26;;;;;;;13.20;9.18;;;16.60;77.00;;;;;;4966464;28;20596;-65
2021/07/22 05:02:57;;;;;;;16.17;9.60;;;16.60;76.30;;;;;;4968905;28;20129;-65
2021/07/22 05:05:24;;;;;;;12.57;9.23;;;16.60;76.60;;;;;;4969438;28;20045;-65
2021/07/22 05:07:49;;;;;;;14.15;9.05;;;16.60;76.40;;;;;;4969066;28;20035;-65
2021/07/22 05:10:15;;;;;;;13.18;10.13;;;16.60;76.40;;;;;;4968969;28;20065;-65
2021/07/22 05:12:40;;;;;;;11.48;9.15;;;16.70;76.60;;;;;;4965268;28;20045;-65
2021/07/22 05:15:06;;;;;;;16.70;9.95;;;16.70;76.80;;;;;;4967618;28;20053;-65
2021/07/22 05:17:35;;;;;;;13.30;9.63;;;16.70;77.00;;;;;;4966220;28;20574;-65
2021/07/22 05:20:00;;;;;;;14.75;9.32;;;16.80;77.30;;;;;;4971757;28;20310;-65
2021/07/22 05:22:26;;;;;;;14.48;9.75;;;16.90;77.40;;;;;;4972082;28;20045;-65
2021/07/22 05:24:51;;;;;;;15.95;9.93;;;16.90;77.30;;;;;;4970720;28;20051;-65
2021/07/22 05:27:19;;;;;;;13.55;9.32;;;17.00;77.30;;;;;;4971811;28;20061;-65
2021/07/22 05:29:45;;;;;;;12.70;8.63;;;17.00;77.30;;;;;;4972046;28;20232;-65
2021/07/22 05:32:13;;;;;;;16.73;9.82;;;17.10;77.30;;;;;;4970887;28;20027;-65
2021/07/22 05:34:38;;;;;;;13.20;9.98;;;17.20;77.30;;;;;;4970836;28;20046;-65
2021/07/22 05:37:05;;;;;;;14.48;9.55;;;17.30;77.00;;;;;;4971232;28;20393;-65
2021/07/22 05:39:30;;;;;;;14.45;9.75;;;17.40;76.90;;;;;;4970789;28;20078;-65
2021/07/22 05:41:56;;;;;;;12.65;9.70;;;17.50;76.60;;;;;;4970398;28;20445;-65
2021/07/22 05:44:22;;;;;;;15.75;9.95;;;17.60;76.40;;;;;;4970860;28;20055;-64
2021/07/22 05:46:47;;;;;;;11.57;8.95;;;17.70;76.30;;;;;;4971206;28;20034;-64
2021/07/22 05:49:13;;;;;;;11.65;9.23;;;17.80;76.10;;;;;;4968472;28;20581;-65
2021/07/22 05:51:38;;;;;;;12.95;9.50;;;17.90;75.60;;;;;;4970304;28;20027;-65
2021/07/22 05:54:04;;;;;;;11.27;8.77;;;18.00;75.20;;;;;;4970674;28;20039;-65
2021/07/22 05:56:30;;;;;;;11.15;9.68;;;18.10;75.10;;;;;;4970935;28;20074;-64
2021/07/22 05:58:55;;;;;;;11.70;9.38;;;18.20;74.60;;;;;;4971213;28;20034;-65
2021/07/22 06:01:21;;;;;;;16.65;9.35;;;18.20;73.70;;;;;;4969689;28;20034;-65
2021/07/22 06:03:47;;;;;;;10.40;8.68;;;18.30;73.30;;;;;;4970857;28;20079;-65
2021/07/22 06:06:12;;;;;;;12.05;9.35;;;18.40;73.50;;;;;;4971557;28;20050;-65
2021/07/22 06:08:38;;;;;;;13.18;10.00;;;18.50;73.90;;;;;;4970611;28;20063;-65
2021/07/22 06:11:07;;;;;;;13.07;9.50;;;18.50;73.40;;;;;;4967184;28;20628;-65
2021/07/22 06:13:34;;;;;;;14.52;10.45;;;18.60;73.30;;;;;;4969153;28;20038;-65
2021/07/22 06:16:01;;;;;;;13.45;10.05;;;18.70;73.20;;;;;;4971484;28;20125;-65
2021/07/22 06:18:27;;;;;;;11.68;9.80;;;18.70;73.00;;;;;;4969113;28;20571;-65
2021/07/22 06:20:53;;;;;;;13.07;9.98;;;18.80;72.90;;;;;;4968262;28;20038;-65
2021/07/22 06:23:18;;;;;;;12.27;9.25;;;18.90;72.90;;;;;;4969721;28;20666;-65
2021/07/22 06:25:44;;;;;;;12.00;9.80;;;19.00;72.90;;;;;;4967610;28;20065;-65
2021/07/22 06:28:09;;;;;;;13.25;9.57;;;19.00;72.30;;;;;;4967799;28;20038;-65
2021/07/22 06:30:35;;;;;;;12.35;9.38;;;19.10;72.10;;;;;;4968574;28;20081;-65
2021/07/22 06:33:01;;;;;;;15.73;9.73;;;19.10;72.10;;;;;;4968230;28;20097;-65
2021/07/22 06:35:26;;;;;;;15.15;9.43;;;19.30;72.00;;;;;;4970302;28;20406;-65
2021/07/22 06:37:52;;;;;;;15.07;9.82;;;19.30;71.70;;;;;;4970283;28;20042;-65
2021/07/22 06:40:18;;;;;;;12.75;9.75;;;19.40;71.20;;;;;;4968058;28;20622;-65
2021/07/22 06:42:44;;;;;;;13.57;9.07;;;19.40;71.10;;;;;;4969089;28;20035;-65
2021/07/22 06:45:10;;;;;;;12.38;9.25;;;19.50;71.20;;;;;;4969752;28;20081;-65
2021/07/22 06:47:40;;;;;;;13.10;9.35;;;19.60;70.90;;;;;;4970688;28;20125;-65
2021/07/22 06:50:08;;;;;;;11.75;8.98;;;19.60;71.10;;;;;;4970075;28;20039;-65
2021/07/22 06:52:39;;;;;;;12.85;9.15;;;19.70;70.80;;;;;;4969045;28;20049;-65
2021/07/22 06:55:06;;;;;;;14.02;9.48;;;19.80;70.40;;;;;;4967935;28;20414;-65
2021/07/22 06:57:32;;;;;;;14.85;9.48;;;19.90;70.50;;;;;;4966873;28;20588;-65
2021/07/22 06:59:58;;;;;;;17.58;9.73;;;19.90;70.40;;;;;;4969267;28;20106;-65
2021/07/22 07:02:23;;;;;;;12.32;8.52;;;20.00;70.00;;;;;;4964200;28;20371;-65
2021/07/22 07:04:49;;;;;;;14.52;9.63;;;20.10;70.00;;;;;;4968205;28;20632;-65
2021/07/22 07:07:19;;;;;;;12.80;9.10;;;20.10;69.70;;;;;;4966977;28;20034;-65
2021/07/22 07:09:45;;;;;;;12.68;9.15;;;20.20;69.70;;;;;;4968762;28;20030;-65
2021/07/22 07:12:10;;;;;;;13.70;9.18;;;20.30;69.50;;;;;;4964818;28;20536;-65
2021/07/22 07:14:36;;;;;;;11.82;9.18;;;20.30;69.20;;;;;;4970141;28;20035;-64
2021/07/22 07:17:03;;;;;;;13.35;8.93;;;20.40;69.30;;;;;;4969805;28;20577;-65
2021/07/22 07:19:28;;;;;;;15.07;9.35;;;20.50;69.30;;;;;;4970114;28;20031;-65
2021/07/22 07:21:54;;;;;;;12.57;9.10;;;20.50;69.00;;;;;;4968839;28;20405;-65
2021/07/22 07:24:20;;;;;;;12.82;9.93;;;20.60;68.80;;;;;;4968582;28;20031;-65
2021/07/22 07:26:45;;;;;;;15.45;10.13;;;20.70;68.60;;;;;;4967026;28;20134;-65
2021/07/22 07:29:11;;;;;;;14.63;9.00;;;20.70;68.50;;;;;;4966398;28;20031;-65
2021/07/22 07:31:38;;;;;;;12.98;8.98;;;20.70;68.00;;;;;;4968083;28;20573;-66
2021/07/22 07:34:04;;;;;;;15.90;9.82;;;20.80;68.00;;;;;;4968027;28;20031;-65
2021/07/22 07:36:29;;;;;;;15.27;9.70;;;20.90;68.00;;;;;;4967866;28;20638;-65
2021/07/22 07:38:55;;;;;;;18.50;9.70;;;21.00;67.80;;;;;;4966817;28;20098;-65
2021/07/22 07:41:21;;;;;;;16.88;9.38;;;21.10;67.90;;;;;;4967741;28;20070;-66
2021/07/22 07:43:46;;;;;;;24.80;9.07;;;21.10;68.00;;;;;;4967722;28;21641;-65
2021/07/22 07:46:12;;;;;;;17.45;10.15;;;21.20;67.90;;;;;;4968642;28;20501;-65
2021/07/22 07:48:37;;;;;;;10.20;8.63;;;21.30;67.00;;;;;;4965004;28;20035;-65
2021/07/22 07:51:08;;;;;;;9.95;7.90;;;21.40;67.30;;;;;;4969533;28;20034;-65
2021/07/22 07:53:34;;;;;;;11.55;8.55;;;21.40;67.50;;;;;;4966061;28;20039;-65
2021/07/22 07:56:00;;;;;;;12.45;8.90;;;21.50;67.40;;;;;;4966820;28;20509;-65
2021/07/22 07:58:25;;;;;;;10.88;8.45;;;21.60;66.60;;;;;;4968039;28;20057;-65
2021/07/22 08:00:51;;;;;;;11.02;8.50;;;21.70;66.70;;;;;;4968451;28;20138;-65
2021/07/22 08:03:18;;;;;;;12.27;8.45;;;21.80;66.40;;;;;;4963980;28;20045;-65
2021/07/22 08:05:45;;;;;;;12.70;8.77;;;21.90;65.50;;;;;;4968484;28;20058;-65
2021/07/22 08:08:10;;;;;;;12.82;8.20;;;22.10;65.20;;;;;;4965834;28;20513;-65
2021/07/22 08:10:40;;;;;;;11.48;8.45;;;22.20;64.80;;;;;;4963184;28;20043;-65
2021/07/22 08:13:07;;;;;;;10.13;8.07;;;22.20;64.50;;;;;;4962143;28;20121;-65
2021/07/22 08:15:32;;;;;;;11.43;8.32;;;22.30;64.60;;;;;;4963011;28;20421;-65
2021/07/22 08:17:58;;;;;;;11.48;7.70;;;22.40;63.90;;;;;;4966062;28;20035;-65
2021/07/22 08:20:23;;;;;;;13.65;8.07;;;22.50;63.90;;;;;;4964381;28;20038;-65
2021/07/22 08:22:49;;;;;;;8.98;8.05;;;22.70;63.30;;;;;;4967112;28;20117;-65
2021/07/22 08:25:14;;;;;;;12.73;8.55;;;22.70;63.30;;;;;;4965852;28;20039;-66
2021/07/22 08:27:40;;;;;;;14.15;7.90;;;22.80;63.30;;;;;;4967793;28;20034;-65
2021/07/22 08:30:06;;;;;;;13.20;7.80;;;22.90;63.10;;;;;;4967070;28;20046;-65
2021/07/22 08:32:33;;;;;;;13.50;7.82;;;23.00;62.80;;;;;;4959309;28;20710;-65
2021/07/22 08:34:58;;;;;;;9.35;7.15;;;23.10;62.80;;;;;;4967700;28;20537;-65
2021/07/22 08:37:24;;;;;;;9.25;7.60;;;23.20;62.80;;;;;;4967930;28;20031;-65
2021/07/22 08:39:51;;;;;;;12.05;8.07;;;23.30;62.10;;;;;;4968226;28;20525;-65
2021/07/22 08:42:17;;;;;;;9.57;7.15;;;23.40;62.70;;;;;;4967768;28;20047;-65
2021/07/22 08:44:43;;;;;;;9.07;6.88;;;23.50;61.70;;;;;;4968129;28;20053;-66
2021/07/22 08:47:10;;;;;;;7.80;6.97;;;23.60;61.60;;;;;;4967437;28;20270;-65
2021/07/22 08:49:38;;;;;;;10.73;6.85;;;23.80;61.20;;;;;;4965836;28;20150;-65
2021/07/22 08:52:09;;;;;;;11.00;8.43;;;23.90;60.80;;;;;;4967982;28;20038;-65
2021/07/22 08:54:36;;;;;;;9.13;7.20;;;24.00;59.20;;;;;;4969484;28;20031;-65
2021/07/22 08:57:05;;;;;;;9.68;6.85;;;24.10;60.20;;;;;;4968623;28;20038;-65
2021/07/22 08:59:31;;;;;;;10.05;7.38;;;24.20;60.10;;;;;;4971542;28;20106;-66
2021/07/22 09:01:59;;;;;;;10.45;7.72;;;24.40;59.30;;;;;;4971821;28;20405;-66
2021/07/22 09:04:25;;;;;;;7.85;6.63;;;24.50;58.80;;;;;;4970453;28;20046;-65
2021/07/22 09:06:50;;;;;;;14.85;8.00;;;24.60;58.80;;;;;;4968253;28;20030;-65
2021/07/22 09:09:17;;;;;;;9.75;7.13;;;24.70;57.50;;;;;;4971624;28;20484;-65
2021/07/22 09:12:00;;;;;;;8.00;7.13;;;24.80;56.80;;;;;;4970508;28;20050;-65
2021/07/22 09:14:28;;;;;;;9.10;6.68;;;24.80;56.70;;;;;;4968361;28;20113;-65
2021/07/22 09:16:54;;;;;;;7.43;6.65;;;24.80;57.60;;;;;;4971130;28;20039;-65
2021/07/22 09:19:35;;;;;;;8.15;6.72;;;25.00;57.50;;;;;;4971456;28;20125;-65
2021/07/22 09:22:02;;;;;;;7.97;6.43;;;25.00;56.60;;;;;;4971716;28;20050;-65
2021/07/22 09:24:27;;;;;;;11.50;6.47;;;25.20;57.30;;;;;;4969736;28;20033;-65
2021/07/22 09:26:54;;;;;;;6.90;6.15;;;25.20;57.50;;;;;;4970804;28;20034;-65
2021/07/22 09:29:20;;;;;;;7.72;6.22;;;25.40;57.40;;;;;;4969607;28;20038;-65
2021/07/22 09:31:46;;;;;;;7.25;6.28;;;25.50;57.00;;;;;;4971634;28;20452;-65
2021/07/22 09:34:26;;;;;;;10.75;6.68;;;25.60;56.60;;;;;;4971550;28;20100;-65
2021/07/22 09:36:52;;;;;;;7.68;6.50;;;25.80;55.70;;;;;;4970297;28;20029;-65
2021/07/22 09:39:28;;;;;;;8.32;6.97;;;25.90;56.20;;;;;;4971608;28;20065;-65
2021/07/22 09:41:57;;;;;;;7.55;6.75;;;26.00;55.40;;;;;;4969525;28;20049;-65
2021/07/22 09:44:36;;;;;;;10.00;6.90;;;26.10;55.00;;;;;;4968162;28;20538;-64
2021/07/22 09:47:05;;;;;;;7.45;6.22;;;26.20;54.60;;;;;;4966768;28;20062;-66
2021/07/22 09:49:32;;;;;;;9.43;7.22;;;26.40;54.90;;;;;;4969552;28;20060;-65
2021/07/22 09:52:04;;;;;;;9.18;7.22;;;26.40;54.50;;;;;;4972304;28;20928;-66
2021/07/22 09:54:35;;;;;;;7.88;6.28;;;26.50;54.00;;;;;;4971426;28;20089;-65
2021/07/22 09:57:02;;;;;;;7.20;6.32;;;26.60;54.00;;;;;;4968230;28;20051;-66
2021/07/22 09:59:29;;;;;;;9.07;6.85;;;26.70;54.20;;;;;;4969902;28;20026;-66
2021/07/22 10:02:01;;;;;;;6.97;6.28;;;26.70;53.80;;;;;;4967899;28;20263;-66
2021/07/22 10:04:29;;;;;;;8.25;6.40;;;26.90;53.20;;;;;;4969104;28;20033;-65
2021/07/22 10:06:57;;;;;;;37.85;7.63;;;27.00;53.10;;;;;;4969562;28;20033;-66
2021/07/22 10:09:25;;;;;;;14.70;6.82;;;27.00;52.80;;;;;;4969464;28;20157;-65
2021/07/22 10:11:52;;;;;;;9.82;7.40;;;27.10;52.80;;;;;;4966998;28;20065;-66
2021/07/22 10:14:20;;;;;;;8.13;7.28;;;27.10;51.70;;;;;;4968515;28;20045;-65
2021/07/22 10:16:48;;;;;;;10.25;7.28;;;27.20;51.70;;;;;;4970759;28;20030;-66
2021/07/22 10:19:15;;;;;;;8.60;6.85;;;27.20;52.10;;;;;;4970153;28;20027;-65
2021/07/22 10:21:41;;;;;;;11.52;7.40;;;27.20;52.10;;;;;;4971019;28;20547;-66
2021/07/22 10:24:07;;;;;;;11.73;6.88;;;27.30;52.10;;;;;;4968913;28;20039;-66
2021/07/22 10:26:39;;;;;;;8.02;6.88;;;27.40;51.90;;;;;;4970529;28;20035;-65
2021/07/22 10:29:05;;;;;;;9.85;6.97;;;27.40;51.80;;;;;;4969425;28;21604;-66
2021/07/22 10:31:34;;;;;;;7.88;7.07;;;27.50;51.40;;;;;;4971452;28;20023;-66
2021/07/22 10:34:00;;;;;;;8.73;6.53;;;27.60;51.40;;;;;;4978370;28;20048;-65
2021/07/22 10:36:27;;;;;;;9.32;6.88;;;27.70;51.30;;;;;;4967071;28;20142;-65
2021/07/22 10:38:52;;;;;;;10.48;6.70;;;27.70;51.30;;;;;;4970672;28;20089;-65
2021/07/22 10:41:34;;;;;;;9.40;7.22;;;27.80;51.00;;;;;;4971245;28;20039;-66
2021/07/22 10:44:00;;;;;;;8.20;7.20;;;27.90;49.50;;;;;;4970307;28;20118;-65
2021/07/22 10:46:58;;;;;;;8.05;6.90;;;27.90;50.00;;;;;;4967768;28;20122;-65
2021/07/22 10:49:40;;;;;;;9.35;7.28;;;28.00;50.30;;;;;;4967962;28;20502;-65
2021/07/22 10:52:08;;;;;;;10.35;7.68;;;28.10;49.40;;;;;;4967794;28;20069;-65
2021/07/22 10:54:48;;;;;;;11.88;7.78;;;28.10;49.70;;;;;;4976123;28;20034;-66
2021/07/22 10:57:33;;;;;;;9.70;7.50;;;28.10;48.80;;;;;;4969249;28;20084;-66
2021/07/22 10:59:58;;;;;;;10.27;7.35;;;28.20;48.60;;;;;;4966970;28;20047;-66
2021/07/22 11:02:43;;;;;;;8.10;7.07;;;28.20;49.20;;;;;;4969520;28;20053;-65
2021/07/22 11:05:38;;;;;;;9.68;7.75;;;28.20;49.10;;;;;;4969533;28;20085;-66
2021/07/22 11:08:20;;;;;;;9.68;7.72;;;28.30;48.50;;;;;;4968342;28;20105;-66
2021/07/22 11:10:57;;;;;;;8.73;7.20;;;28.40;48.20;;;;;;4966671;28;20034;-66
2021/07/22 11:13:34;;;;;;;9.65;7.53;;;28.40;48.30;;;;;;4967697;28;20437;-66
2021/07/22 11:16:03;;;;;;;11.00;8.20;;;28.40;48.10;;;;;;4967949;28;20429;-66
2021/07/22 11:18:43;;;;;;;9.70;7.75;;;28.40;48.80;;;;;;4969120;28;20493;-65
2021/07/22 11:21:09;;;;;;;8.27;7.47;;;28.40;47.20;;;;;;4969857;28;20705;-66
2021/07/22 11:23:35;;;;;;;11.02;7.80;;;28.40;48.50;;;;;;4969514;28;20114;-66
2021/07/22 11:26:01;;;;;;;8.90;7.80;;;28.50;48.10;;;;;;4970687;28;20038;-66
2021/07/22 11:28:28;;;;;;;8.48;7.57;;;28.50;47.90;;;;;;4969832;28;20035;-66
2021/07/22 11:31:07;;;;;;;11.48;7.68;;;28.50;47.60;;;;;;4968010;28;20040;-66
2021/07/22 11:33:37;;;;;;;9.77;8.00;;;28.40;46.50;;;;;;4968539;28;20561;-66
2021/07/22 11:36:12;;;;;;;8.65;7.63;;;28.40;47.60;;;;;;4966235;28;20058;-66
2021/07/22 11:38:39;;;;;;;9.35;7.55;;;28.40;47.30;;;;;;4967274;28;20035;-66
2021/07/22 11:41:12;;;;;;;10.75;8.05;;;28.40;47.60;;;;;;4967697;28;20050;-66
2021/07/22 11:43:43;;;;;;;8.45;7.45;;;28.50;46.50;;;;;;4968552;28;20089;-66
2021/07/22 11:46:13;;;;;;;8.52;7.20;;;28.50;47.00;;;;;;4968755;28;20113;-66
2021/07/22 11:48:40;;;;;;;9.15;7.53;;;28.60;46.60;;;;;;4968074;28;20035;-66
2021/07/22 11:51:09;;;;;;;9.48;8.13;;;28.60;46.80;;;;;;4966764;28;20129;-66
2021/07/22 11:53:36;;;;;;;10.48;7.45;;;28.70;46.80;;;;;;4969445;28;20038;-65
2021/07/22 11:56:10;;;;;;;11.18;7.97;;;28.70;47.00;;;;;;4967048;28;20042;-65
2021/07/22 11:58:40;;;;;;;;;;;28.70;46.30;;;;;;4969794;28;20039;-64
2021/07/22 12:01:07;;;;;;;9.13;7.13;;;28.80;48.00;;;;;;4967871;28;19921;-65
2021/07/22 12:03:33;;;;;;;8.35;7.50;;;28.80;46.60;;;;;;4967962;28;20082;-65
2021/07/22 12:05:58;;;;;;;7.97;7.13;;;28.80;46.30;;;;;;4968630;28;20046;-65
2021/07/22 12:08:24;;;;;;;8.73;7.47;;;28.70;46.40;;;;;;4966553;28;20339;-64
2021/07/22 12:11:00;;;;;;;9.52;7.38;;;28.70;46.30;;;;;;4967694;28;20583;-65
2021/07/22 12:13:26;;;;;;;9.15;7.38;;;28.70;45.60;;;;;;4965969;28;20069;-65
2021/07/22 12:15:53;;;;;;;9.98;7.68;;;28.70;46.40;;;;;;4968294;28;20416;-64
2021/07/22 12:18:23;;;;;;;8.88;7.97;;;28.70;46.50;;;;;;4968761;28;20493;-65
2021/07/22 12:20:49;;;;;;;10.35;7.55;;;28.70;46.20;;;;;;4967166;28;20047;-65
2021/07/22 12:23:33;;;;;;;8.85;7.03;;;28.70;46.40;;;;;;4966938;28;20536;-65
2021/07/22 12:26:01;;;;;;;8.98;7.45;;;28.80;46.20;;;;;;4967700;28;20050;-65
2021/07/22 12:28:28;;;;;;;8.68;7.55;;;28.80;46.00;;;;;;4966947;28;20038;-64
2021/07/22 12:30:54;;;;;;;10.00;7.55;;;28.90;45.70;;;;;;4977288;28;20065;-64
2021/07/22 12:33:26;;;;;;;8.68;7.78;;;28.90;46.00;;;;;;4969130;28;20035;-65
2021/07/22 12:35:53;;;;;;;10.02;7.18;;;28.90;45.50;;;;;;4968539;28;20122;-65
2021/07/22 12:38:18;;;;;;;10.82;7.75;;;28.90;45.70;;;;;;4966750;28;20031;-65